Etusivu
METAR-TAF:

METAR-TAF

Lentoasemat :

Hondo, Texas, Yhdysvallat

Leveyspiiri: 29-21-34N, Pituuspiiri: 099-10-27W, korkeus merenpinnasta: 283 m

Tämänhetkinen sää

Tämä raportti tehtiin 41 minuuttia sitten, kello 00.51 UTC
Tuuli 5 kn koillisesta
Lämpötila 20°C
Kosteus 88%
Ilmanpaine 1014 hPa
Näkyvyys: 16.1 km
Hajanaisia pilviä 3800 ft:n korkeudessa
Hajanaisia pilviä 6000 ft:n korkeudessa

METAR: KHDO 080051Z AUTO 05005KT 10SM SCT038 SCT060 20/18 A2994 RMK AO2 SLP126 T02000178

Aika: 19:32 (01:32 UTC)


TAF: puuttuu

Säähavainnot ja -ennusteet yli 4000 lentoasemalta (METAR- ja TAF-raportit).

Käytössä olevat sääasemat on merkitty karttaan keltaisilla ja punaisilla pisteillä.

Aseta hiiri pisteen päälle nähdäksesi sääaseman nimen.

Klikkaa sitten nähdäksesi säähavainnot ja -ennusteet.

Kartan vaihtaminen: klikkaa mustalla rastilla varustettuja vihreitä pisteitä, niin voit zoomata sisään; viivalla varustettua vihreää pistettä, niin voit zoomata ulos tai vihreitä nuolia, niin pääset viereisille kartoille.


METAR-TAF: